sensor_id;sensor_type;location;lat;lon;timestamp;P1;durP1;ratioP1;P2;durP2;ratioP2
61553;SDS011;47425;51.976;5.326;2022-10-18T09:02:40;0.82;;;0.82;;
61553;SDS011;47425;51.976;5.326;2022-10-18T09:11:22;1.27;;;1.00;;
61553;SDS011;47425;51.976;5.326;2022-10-18T09:25:36;0.95;;;0.68;;
61553;SDS011;47425;51.976;5.326;2022-10-18T09:34:08;0.77;;;0.77;;
61553;SDS011;47425;51.976;5.326;2022-10-18T09:36:56;0.73;;;0.73;;
61553;SDS011;47425;51.976;5.326;2022-10-18T09:39:27;0.77;;;0.77;;
61553;SDS011;47425;51.976;5.326;2022-10-18T09:45:02;1.38;;;0.80;;
61553;SDS011;47425;51.976;5.326;2022-10-18T09:47:44;0.80;;;0.80;;
61553;SDS011;47425;51.976;5.326;2022-10-18T09:50:23;0.60;;;0.60;;
61553;SDS011;47425;51.976;5.326;2022-10-18T09:52:58;1.50;;;0.85;;
61553;SDS011;47425;51.976;5.326;2022-10-18T09:55:53;0.82;;;0.80;;
61553;SDS011;47425;51.976;5.326;2022-10-18T09:58:27;1.30;;;0.80;;
61553;SDS011;47425;51.976;5.326;2022-10-18T10:01:19;1.58;;;1.00;;
61553;SDS011;47425;51.976;5.326;2022-10-18T10:03:48;0.75;;;0.75;;
61553;SDS011;47425;51.976;5.326;2022-10-18T10:06:16;0.80;;;0.80;;
61553;SDS011;47425;51.976;5.326;2022-10-18T10:08:53;1.88;;;0.73;;
61553;SDS011;47425;51.976;5.326;2022-10-18T10:11:46;0.80;;;0.80;;
61553;SDS011;47425;51.976;5.326;2022-10-18T10:16:55;1.58;;;0.60;;
61553;SDS011;47425;51.976;5.326;2022-10-18T10:19:25;2.33;;;0.90;;
61553;SDS011;47425;51.976;5.326;2022-10-18T10:21:58;0.60;;;0.50;;
61553;SDS011;47425;51.976;5.326;2022-10-18T10:24:47;2.25;;;0.75;;
61553;SDS011;47425;51.976;5.326;2022-10-18T10:29:57;1.17;;;0.68;;
61553;SDS011;47425;51.976;5.326;2022-10-18T10:32:26;0.68;;;0.68;;
61553;SDS011;47425;51.976;5.326;2022-10-18T10:34:53;0.85;;;0.70;;
61553;SDS011;47425;51.976;5.326;2022-10-18T10:37:23;1.13;;;0.70;;
61553;SDS011;47425;51.976;5.326;2022-10-18T10:42:55;1.80;;;0.70;;
61553;SDS011;47425;51.976;5.326;2022-10-18T10:45:21;0.70;;;0.70;;
61553;SDS011;47425;51.976;5.326;2022-10-18T10:47:48;1.70;;;0.75;;
61553;SDS011;47425;51.976;5.326;2022-10-18T10:50:23;0.70;;;0.68;;
61553;SDS011;47425;51.976;5.326;2022-10-18T10:52:52;1.63;;;0.77;;
61553;SDS011;47425;51.976;5.326;2022-10-18T10:55:19;1.08;;;0.57;;
61553;SDS011;47425;51.976;5.326;2022-10-18T10:57:48;0.70;;;0.70;;
61553;SDS011;47425;51.976;5.326;2022-10-18T11:03:18;6.15;;;1.20;;
61553;SDS011;47425;51.976;5.326;2022-10-18T11:05:47;4.22;;;0.80;;
61553;SDS011;47425;51.976;5.326;2022-10-18T11:10:49;3.13;;;1.10;;
61553;SDS011;47425;51.976;5.326;2022-10-18T11:16:00;4.30;;;0.82;;
61553;SDS011;47425;51.976;5.326;2022-10-18T11:18:49;2.03;;;0.90;;
61553;SDS011;47425;51.976;5.326;2022-10-18T11:21:21;2.38;;;0.70;;
61553;SDS011;47425;51.976;5.326;2022-10-18T11:23:53;1.52;;;0.80;;
61553;SDS011;47425;51.976;5.326;2022-10-18T11:32:02;3.80;;;0.93;;
61553;SDS011;47425;51.976;5.326;2022-10-18T11:37:38;1.67;;;0.55;;
61553;SDS011;47425;51.976;5.326;2022-10-18T11:43:41;2.22;;;0.93;;
61553;SDS011;47425;51.976;5.326;2022-10-18T11:46:36;1.98;;;0.80;;
61553;SDS011;47425;51.976;5.326;2022-10-18T11:49:16;1.63;;;0.70;;
61553;SDS011;47425;51.976;5.326;2022-10-18T11:57:42;1.73;;;0.80;;
61553;SDS011;47425;51.976;5.326;2022-10-18T12:05:44;1.63;;;0.82;;
61553;SDS011;47425;51.976;5.326;2022-10-18T12:08:23;2.67;;;0.80;;
61553;SDS011;47425;51.976;5.326;2022-10-18T12:10:57;1.65;;;0.63;;
61553;SDS011;47425;51.976;5.326;2022-10-18T12:16:01;1.38;;;0.75;;
61553;SDS011;47425;51.976;5.326;2022-10-18T12:18:30;2.13;;;0.80;;
61553;SDS011;47425;51.976;5.326;2022-10-18T12:20:57;1.50;;;0.80;;
61553;SDS011;47425;51.976;5.326;2022-10-18T12:26:22;1.50;;;0.65;;
61553;SDS011;47425;51.976;5.326;2022-10-18T12:28:53;0.93;;;0.68;;
61553;SDS011;47425;51.976;5.326;2022-10-18T12:31:47;1.42;;;0.70;;
61553;SDS011;47425;51.976;5.326;2022-10-18T12:39:33;2.03;;;0.80;;
61553;SDS011;47425;51.976;5.326;2022-10-18T12:42:04;1.48;;;0.50;;
61553;SDS011;47425;51.976;5.326;2022-10-18T12:44:31;0.63;;;0.50;;
61553;SDS011;47425;51.976;5.326;2022-10-18T12:46:59;2.75;;;0.47;;
61553;SDS011;47425;51.976;5.326;2022-10-18T12:52:01;0.98;;;0.40;;
61553;SDS011;47425;51.976;5.326;2022-10-18T12:55:04;1.00;;;0.70;;
61553;SDS011;47425;51.976;5.326;2022-10-18T13:00:50;1.30;;;0.60;;
61553;SDS011;47425;51.976;5.326;2022-10-18T13:16:20;1.55;;;0.70;;
61553;SDS011;47425;51.976;5.326;2022-10-18T13:21:57;1.58;;;0.65;;
61553;SDS011;47425;51.976;5.326;2022-10-18T13:35:49;1.33;;;0.63;;
61553;SDS011;47425;51.976;5.326;2022-10-18T13:41:25;1.65;;;0.73;;
61553;SDS011;47425;51.976;5.326;2022-10-18T13:46:21;0.60;;;0.60;;
61553;SDS011;47425;51.976;5.326;2022-10-18T13:52:16;0.77;;;0.40;;
61553;SDS011;47425;51.976;5.326;2022-10-18T13:58:01;0.82;;;0.45;;
61553;SDS011;47425;51.976;5.326;2022-10-18T14:06:22;1.52;;;0.60;;
61553;SDS011;47425;51.976;5.326;2022-10-18T14:08:57;1.02;;;0.68;;
61553;SDS011;47425;51.976;5.326;2022-10-18T14:11:36;1.15;;;0.70;;
61553;SDS011;47425;51.976;5.326;2022-10-18T14:16:47;1.77;;;0.50;;
61553;SDS011;47425;51.976;5.326;2022-10-18T14:19:39;1.05;;;0.70;;
61553;SDS011;47425;51.976;5.326;2022-10-18T14:22:11;0.47;;;0.47;;
61553;SDS011;47425;51.976;5.326;2022-10-18T14:24:54;0.50;;;0.50;;
61553;SDS011;47425;51.976;5.326;2022-10-18T14:27:23;2.40;;;0.65;;
61553;SDS011;47425;51.976;5.326;2022-10-18T14:30:05;0.82;;;0.70;;
61553;SDS011;47425;51.976;5.326;2022-10-18T14:32:46;1.30;;;0.50;;
61553;SDS011;47425;51.976;5.326;2022-10-18T14:37:48;1.95;;;0.50;;
61553;SDS011;47425;51.976;5.326;2022-10-18T14:40:34;1.70;;;0.70;;
61553;SDS011;47425;51.976;5.326;2022-10-18T14:43:10;1.37;;;0.50;;
61553;SDS011;47425;51.976;5.326;2022-10-18T14:45:37;0.77;;;0.50;;
61553;SDS011;47425;51.976;5.326;2022-10-18T14:48:12;1.10;;;0.73;;
61553;SDS011;47425;51.976;5.326;2022-10-18T14:50:41;0.63;;;0.60;;
61553;SDS011;47425;51.976;5.326;2022-10-18T14:53:17;1.00;;;0.50;;
61553;SDS011;47425;51.976;5.326;2022-10-18T14:55:57;1.10;;;0.50;;
61553;SDS011;47425;51.976;5.326;2022-10-18T14:58:26;0.80;;;0.50;;
61553;SDS011;47425;51.976;5.326;2022-10-18T15:00:52;1.27;;;0.70;;
61553;SDS011;47425;51.976;5.326;2022-10-18T15:03:18;2.45;;;0.70;;
61553;SDS011;47425;51.976;5.326;2022-10-18T15:08:43;1.08;;;0.60;;
61553;SDS011;47425;51.976;5.326;2022-10-18T15:11:12;0.80;;;0.55;;
61553;SDS011;47425;51.976;5.326;2022-10-18T15:13:49;1.30;;;0.50;;
61553;SDS011;47425;51.976;5.326;2022-10-18T15:16:18;0.80;;;0.60;;
61553;SDS011;47425;51.976;5.326;2022-10-18T15:19:03;1.65;;;0.68;;
61553;SDS011;47425;51.976;5.326;2022-10-18T15:21:29;1.23;;;0.70;;
61553;SDS011;47425;51.976;5.326;2022-10-18T15:24:17;1.40;;;0.80;;
61553;SDS011;47425;51.976;5.326;2022-10-18T15:26:51;1.98;;;0.57;;
61553;SDS011;47425;51.976;5.326;2022-10-18T15:29:24;1.65;;;0.70;;
61553;SDS011;47425;51.976;5.326;2022-10-18T15:31:52;1.70;;;0.60;;
61553;SDS011;47425;51.976;5.326;2022-10-18T15:34:21;0.88;;;0.50;;
61553;SDS011;47425;51.976;5.326;2022-10-18T15:36:51;1.83;;;0.75;;
61553;SDS011;47425;51.976;5.326;2022-10-18T15:39:22;1.77;;;0.80;;
61553;SDS011;47425;51.976;5.326;2022-10-18T15:41:56;2.42;;;0.90;;
61553;SDS011;47425;51.976;5.326;2022-10-18T15:47:17;2.03;;;0.73;;
61553;SDS011;47425;51.976;5.326;2022-10-18T15:49:53;1.13;;;0.60;;
61553;SDS011;47425;51.976;5.326;2022-10-18T15:54:55;1.15;;;0.70;;
61553;SDS011;47425;51.976;5.326;2022-10-18T15:57:23;1.15;;;0.85;;
61553;SDS011;47425;51.976;5.326;2022-10-18T15:59:59;1.65;;;0.80;;
61553;SDS011;47425;51.976;5.326;2022-10-18T16:02:37;1.23;;;0.80;;
61553;SDS011;47425;51.976;5.326;2022-10-18T16:05:03;2.10;;;0.90;;
61553;SDS011;47425;51.976;5.326;2022-10-18T16:07:29;1.02;;;0.80;;
61553;SDS011;47425;51.976;5.326;2022-10-18T16:09:54;1.05;;;0.80;;
61553;SDS011;47425;51.976;5.326;2022-10-18T16:12:20;1.48;;;0.80;;
61553;SDS011;47425;51.976;5.326;2022-10-18T16:14:46;3.83;;;1.13;;
61553;SDS011;47425;51.976;5.326;2022-10-18T16:17:12;6.30;;;0.95;;
61553;SDS011;47425;51.976;5.326;2022-10-18T16:19:41;1.08;;;0.63;;
61553;SDS011;47425;51.976;5.326;2022-10-18T16:22:12;1.85;;;0.73;;
61553;SDS011;47425;51.976;5.326;2022-10-18T16:24:38;2.28;;;0.70;;
61553;SDS011;47425;51.976;5.326;2022-10-18T16:27:04;2.50;;;0.70;;
61553;SDS011;47425;51.976;5.326;2022-10-18T16:29:30;10.90;;;1.55;;
61553;SDS011;47425;51.976;5.326;2022-10-18T16:31:58;5.55;;;1.23;;
61553;SDS011;47425;51.976;5.326;2022-10-18T16:34:27;4.80;;;1.17;;
61553;SDS011;47425;51.976;5.326;2022-10-18T16:39:19;4.35;;;1.25;;
61553;SDS011;47425;51.976;5.326;2022-10-18T16:41:46;7.75;;;1.60;;
61553;SDS011;47425;51.976;5.326;2022-10-18T16:44:12;12.85;;;3.15;;
61553;SDS011;47425;51.976;5.326;2022-10-18T16:46:38;15.68;;;4.00;;
61553;SDS011;47425;51.976;5.326;2022-10-18T16:49:05;18.65;;;5.47;;
61553;SDS011;47425;51.976;5.326;2022-10-18T16:51:30;15.98;;;3.75;;
61553;SDS011;47425;51.976;5.326;2022-10-18T16:53:57;15.38;;;4.55;;
61553;SDS011;47425;51.976;5.326;2022-10-18T16:56:26;14.85;;;4.15;;
61553;SDS011;47425;51.976;5.326;2022-10-18T16:58:55;25.95;;;5.13;;
61553;SDS011;47425;51.976;5.326;2022-10-18T17:01:21;19.83;;;6.38;;
61553;SDS011;47425;51.976;5.326;2022-10-18T17:03:47;50.25;;;23.02;;
61553;SDS011;47425;51.976;5.326;2022-10-18T17:06:24;52.53;;;27.83;;
61553;SDS011;47425;51.976;5.326;2022-10-18T17:08:52;42.80;;;23.80;;
61553;SDS011;47425;51.976;5.326;2022-10-18T17:11:19;37.20;;;20.90;;
61553;SDS011;47425;51.976;5.326;2022-10-18T17:13:45;37.80;;;21.02;;
61553;SDS011;47425;51.976;5.326;2022-10-18T17:16:22;33.63;;;19.23;;
61553;SDS011;47425;51.976;5.326;2022-10-18T17:18:52;41.17;;;21.05;;
61553;SDS011;47425;51.976;5.326;2022-10-18T17:21:22;37.53;;;20.67;;
61553;SDS011;47425;51.976;5.326;2022-10-18T17:23:48;38.83;;;19.80;;
61553;SDS011;47425;51.976;5.326;2022-10-18T17:26:15;36.38;;;19.80;;
61553;SDS011;47425;51.976;5.326;2022-10-18T17:28:42;44.30;;;21.25;;
61553;SDS011;47425;51.976;5.326;2022-10-18T17:31:08;38.30;;;19.92;;
61553;SDS011;47425;51.976;5.326;2022-10-18T17:33:35;33.85;;;19.38;;
61553;SDS011;47425;51.976;5.326;2022-10-18T17:36:00;36.30;;;19.65;;
61553;SDS011;47425;51.976;5.326;2022-10-18T17:38:26;36.05;;;20.08;;
61553;SDS011;47425;51.976;5.326;2022-10-18T17:40:51;37.78;;;20.20;;
61553;SDS011;47425;51.976;5.326;2022-10-18T17:43:18;32.72;;;18.33;;
61553;SDS011;47425;51.976;5.326;2022-10-18T17:45:45;33.60;;;19.58;;
61553;SDS011;47425;51.976;5.326;2022-10-18T17:48:15;33.50;;;18.67;;
61553;SDS011;47425;51.976;5.326;2022-10-18T17:50:42;27.48;;;18.40;;
61553;SDS011;47425;51.976;5.326;2022-10-18T17:53:08;28.15;;;17.58;;
61553;SDS011;47425;51.976;5.326;2022-10-18T17:55:36;32.38;;;18.15;;
61553;SDS011;47425;51.976;5.326;2022-10-18T17:58:01;29.65;;;17.90;;
61553;SDS011;47425;51.976;5.326;2022-10-18T18:00:28;32.10;;;18.00;;
61553;SDS011;47425;51.976;5.326;2022-10-18T18:02:57;25.95;;;16.35;;
61553;SDS011;47425;51.976;5.326;2022-10-18T18:05:23;29.42;;;17.45;;
61553;SDS011;47425;51.976;5.326;2022-10-18T18:07:50;25.77;;;16.52;;
61553;SDS011;47425;51.976;5.326;2022-10-18T18:10:16;27.83;;;16.40;;
61553;SDS011;47425;51.976;5.326;2022-10-18T18:12:41;29.65;;;16.70;;
61553;SDS011;47425;51.976;5.326;2022-10-18T18:15:09;25.83;;;16.33;;
61553;SDS011;47425;51.976;5.326;2022-10-18T18:17:37;28.20;;;17.40;;
61553;SDS011;47425;51.976;5.326;2022-10-18T18:20:02;26.50;;;16.10;;
61553;SDS011;47425;51.976;5.326;2022-10-18T18:22:29;25.90;;;15.80;;
61553;SDS011;47425;51.976;5.326;2022-10-18T18:24:55;25.35;;;15.45;;
61553;SDS011;47425;51.976;5.326;2022-10-18T18:27:21;25.48;;;14.90;;
61553;SDS011;47425;51.976;5.326;2022-10-18T18:29:47;24.60;;;15.38;;
61553;SDS011;47425;51.976;5.326;2022-10-18T18:32:13;21.95;;;14.93;;
61553;SDS011;47425;51.976;5.326;2022-10-18T18:34:39;25.00;;;15.48;;
61553;SDS011;47425;51.976;5.326;2022-10-18T18:37:06;23.77;;;14.57;;
61553;SDS011;47425;51.976;5.326;2022-10-18T18:39:32;21.85;;;14.40;;
61553;SDS011;47425;51.976;5.326;2022-10-18T18:42:04;24.88;;;14.48;;
61553;SDS011;47425;51.976;5.326;2022-10-18T18:44:30;22.65;;;13.63;;
61553;SDS011;47425;51.976;5.326;2022-10-18T18:46:56;22.77;;;14.32;;
61553;SDS011;47425;51.976;5.326;2022-10-18T18:49:22;21.80;;;14.48;;
61553;SDS011;47425;51.976;5.326;2022-10-18T18:51:49;24.45;;;13.85;;
61553;SDS011;47425;51.976;5.326;2022-10-18T18:54:14;21.17;;;13.93;;
61553;SDS011;47425;51.976;5.326;2022-10-18T18:56:41;22.30;;;12.98;;
61553;SDS011;47425;51.976;5.326;2022-10-18T18:59:06;25.15;;;13.57;;
61553;SDS011;47425;51.976;5.326;2022-10-18T19:01:33;22.70;;;12.90;;
61553;SDS011;47425;51.976;5.326;2022-10-18T19:04:00;20.20;;;12.15;;
61553;SDS011;47425;51.976;5.326;2022-10-18T19:06:29;17.75;;;11.40;;
61553;SDS011;47425;51.976;5.326;2022-10-18T19:11:28;20.63;;;11.65;;
61553;SDS011;47425;51.976;5.326;2022-10-18T19:13:58;16.33;;;11.00;;
61553;SDS011;47425;51.976;5.326;2022-10-18T19:24:00;17.15;;;9.70;;
61553;SDS011;47425;51.976;5.326;2022-10-18T19:29:03;16.85;;;10.40;;
61553;SDS011;47425;51.976;5.326;2022-10-18T19:31:29;14.70;;;9.75;;
61553;SDS011;47425;51.976;5.326;2022-10-18T19:33:55;15.82;;;9.60;;
61553;SDS011;47425;51.976;5.326;2022-10-18T19:36:21;14.80;;;9.55;;
61553;SDS011;47425;51.976;5.326;2022-10-18T19:38:47;14.82;;;9.05;;
61553;SDS011;47425;51.976;5.326;2022-10-18T19:41:12;15.73;;;8.95;;
61553;SDS011;47425;51.976;5.326;2022-10-18T19:43:39;14.40;;;8.98;;
61553;SDS011;47425;51.976;5.326;2022-10-18T19:46:04;15.68;;;9.20;;
61553;SDS011;47425;51.976;5.326;2022-10-18T19:48:30;13.45;;;8.27;;
61553;SDS011;47425;51.976;5.326;2022-10-18T19:50:55;15.65;;;9.70;;
61553;SDS011;47425;51.976;5.326;2022-10-18T19:53:22;13.32;;;8.30;;
61553;SDS011;47425;51.976;5.326;2022-10-18T19:55:47;12.45;;;8.27;;
61553;SDS011;47425;51.976;5.326;2022-10-18T19:58:12;14.82;;;8.50;;
61553;SDS011;47425;51.976;5.326;2022-10-18T20:00:38;14.13;;;8.25;;
61553;SDS011;47425;51.976;5.326;2022-10-18T20:03:04;12.95;;;8.30;;
61553;SDS011;47425;51.976;5.326;2022-10-18T20:05:30;11.70;;;7.25;;
61553;SDS011;47425;51.976;5.326;2022-10-18T20:07:55;12.45;;;7.95;;
61553;SDS011;47425;51.976;5.326;2022-10-18T20:10:22;10.70;;;7.63;;
61553;SDS011;47425;51.976;5.326;2022-10-18T20:12:47;11.60;;;7.47;;
61553;SDS011;47425;51.976;5.326;2022-10-18T20:15:12;11.60;;;7.18;;
61553;SDS011;47425;51.976;5.326;2022-10-18T20:17:38;12.02;;;6.95;;
61553;SDS011;47425;51.976;5.326;2022-10-18T20:20:04;12.45;;;7.20;;
61553;SDS011;47425;51.976;5.326;2022-10-18T20:22:30;14.18;;;6.63;;
61553;SDS011;47425;51.976;5.326;2022-10-18T20:24:56;8.80;;;5.85;;
61553;SDS011;47425;51.976;5.326;2022-10-18T20:27:23;11.77;;;6.68;;
61553;SDS011;47425;51.976;5.326;2022-10-18T20:29:48;12.75;;;6.50;;
61553;SDS011;47425;51.976;5.326;2022-10-18T20:32:14;8.57;;;6.00;;
61553;SDS011;47425;51.976;5.326;2022-10-18T20:34:39;9.85;;;5.70;;
61553;SDS011;47425;51.976;5.326;2022-10-18T20:37:06;9.73;;;5.90;;
61553;SDS011;47425;51.976;5.326;2022-10-18T20:39:31;11.25;;;5.78;;
61553;SDS011;47425;51.976;5.326;2022-10-18T20:41:57;10.63;;;5.80;;
61553;SDS011;47425;51.976;5.326;2022-10-18T20:44:24;10.40;;;5.93;;
61553;SDS011;47425;51.976;5.326;2022-10-18T20:46:57;8.15;;;5.15;;
61553;SDS011;47425;51.976;5.326;2022-10-18T20:49:22;8.45;;;5.72;;
61553;SDS011;47425;51.976;5.326;2022-10-18T20:51:47;9.73;;;5.28;;
61553;SDS011;47425;51.976;5.326;2022-10-18T20:54:14;9.93;;;5.32;;
61553;SDS011;47425;51.976;5.326;2022-10-18T20:56:39;7.20;;;5.07;;
61553;SDS011;47425;51.976;5.326;2022-10-18T20:59:05;7.78;;;4.95;;
61553;SDS011;47425;51.976;5.326;2022-10-18T21:01:34;8.85;;;5.28;;
61553;SDS011;47425;51.976;5.326;2022-10-18T21:04:01;7.83;;;4.63;;
61553;SDS011;47425;51.976;5.326;2022-10-18T21:06:29;8.77;;;4.93;;
61553;SDS011;47425;51.976;5.326;2022-10-18T21:08:57;8.30;;;4.88;;
61553;SDS011;47425;51.976;5.326;2022-10-18T21:11:26;8.07;;;5.00;;
61553;SDS011;47425;51.976;5.326;2022-10-18T21:13:54;8.40;;;4.65;;
61553;SDS011;47425;51.976;5.326;2022-10-18T21:16:21;6.47;;;4.57;;
61553;SDS011;47425;51.976;5.326;2022-10-18T21:18:48;7.30;;;4.65;;
61553;SDS011;47425;51.976;5.326;2022-10-18T21:21:14;8.45;;;4.47;;
61553;SDS011;47425;51.976;5.326;2022-10-18T21:23:41;7.28;;;4.38;;
61553;SDS011;47425;51.976;5.326;2022-10-18T21:26:07;8.00;;;4.63;;
61553;SDS011;47425;51.976;5.326;2022-10-18T21:28:38;7.72;;;4.57;;
61553;SDS011;47425;51.976;5.326;2022-10-18T21:31:22;6.25;;;4.00;;
61553;SDS011;47425;51.976;5.326;2022-10-18T21:33:53;6.57;;;4.00;;
61553;SDS011;47425;51.976;5.326;2022-10-18T21:36:23;6.93;;;4.38;;
61553;SDS011;47425;51.976;5.326;2022-10-18T21:38:51;7.40;;;4.50;;
61553;SDS011;47425;51.976;5.326;2022-10-18T21:41:17;6.35;;;3.90;;
61553;SDS011;47425;51.976;5.326;2022-10-18T21:43:45;6.47;;;3.78;;
61553;SDS011;47425;51.976;5.326;2022-10-18T21:46:12;4.75;;;3.72;;
61553;SDS011;47425;51.976;5.326;2022-10-18T21:48:44;5.75;;;3.88;;
61553;SDS011;47425;51.976;5.326;2022-10-18T21:51:13;5.82;;;3.63;;
61553;SDS011;47425;51.976;5.326;2022-10-18T21:53:41;5.57;;;3.83;;
61553;SDS011;47425;51.976;5.326;2022-10-18T21:56:09;6.65;;;3.50;;
61553;SDS011;47425;51.976;5.326;2022-10-18T21:58:38;4.40;;;3.30;;
61553;SDS011;47425;51.976;5.326;2022-10-18T22:01:07;6.40;;;3.60;;
61553;SDS011;47425;51.976;5.326;2022-10-18T22:03:34;5.97;;;3.28;;
61553;SDS011;47425;51.976;5.326;2022-10-18T22:06:02;4.68;;;3.15;;
61553;SDS011;47425;51.976;5.326;2022-10-18T22:08:32;6.03;;;3.30;;
61553;SDS011;47425;51.976;5.326;2022-10-18T22:10:58;4.75;;;3.28;;
61553;SDS011;47425;51.976;5.326;2022-10-18T22:13:33;4.68;;;3.00;;
61553;SDS011;47425;51.976;5.326;2022-10-18T22:16:03;5.18;;;2.92;;
61553;SDS011;47425;51.976;5.326;2022-10-18T22:18:31;5.03;;;2.80;;
61553;SDS011;47425;51.976;5.326;2022-10-18T22:20:58;6.65;;;3.38;;
61553;SDS011;47425;51.976;5.326;2022-10-18T22:23:32;5.20;;;3.13;;
61553;SDS011;47425;51.976;5.326;2022-10-18T22:26:03;6.38;;;3.83;;
61553;SDS011;47425;51.976;5.326;2022-10-18T22:28:32;5.50;;;3.20;;
